Terminal Aerodrome Forecast
Issued by NWS

Home | Current Version | Previous Version | Text Only | Print | Product List | Glossary On
Versions: 1 2 3 4 5 6 7 8 9 10 11 12 13 14 15 16 17
000
FTUS46 KMTR 012300
TAFOAK
TAF
KOAK 012326Z 0200/0306 27008KT P6SM FEW030
     FM020400 31005KT P6SM SKC
     FM021000 16004KT 6SM BR FEW010
     FM022000 22007KT P6SM SCT050 BKN100
     FM022300 27008KT P6SM SCT035 BKN100=

USA.gov is the U.S. government's official web portal to all federal, state and local government web resources and services.